High Bridge, Wisconsin
Current Conditions -  °F | °C
As of 8:53 PM on Wednesday 26 Nov 2014 (Local Time) from KASX Reporting Station
Overcast Overcast  
Wind Chill:   Ceiling: 4200
Heat Index: 16°   Visibility: 10mi
Dew Point: 10°   Wind: 13mph
Humidity: 77%   Direction: 350°N
Pressure: 30.32"   Gusts: NA
Location:  46.39°N, 90.74°W
Report Text: KASX 270253Z AUTO 35011KT 10SM FEW017 OVC042 M09/M12 A3032 RMK AO2 SLP283 T10891122 51014
Loading
Personal Weather Stations






























Interactive Weather Map New forecast layout! Learn more

10-Day Weather Forecast

Advertisements
Track Severe Weather on mobile